SR 1 @ Trap Shooters Rd, Magnolia DE USA current weather conditions

sailwx.info

Wind from 075 at 11 knots gusting 16

Air temperature 11.2° C
Dewpoint 11.1° C

Last reported at 2019-Dec-13 23:00 UTC.
Time now 2019-Dec-13 23:43 UTC

Location: N 39°05' W 075°27'.
View on Google Maps.

See reports from other nearby stations

  
Tides and Currents Weather Stations Pressure Air Temp Water Temp Dewpoint Dewpoint Depression Visibility Wind Speed Wind Dir Waves Ship Positions
date/time (UTC)wind fromknots sea level pressurealtimeterstation pressurevisibilityair tempwater tempwave heightnotes
2019-Dec-13 23:00 075 11 gusting 16 11.2
2019-Dec-13 22:45 070 11 gusting 16 11.1
2019-Dec-13 22:40 080 11 gusting 15 10.8
2019-Dec-13 22:35 080 11 gusting 14 10.7
2019-Dec-13 22:30 070 9 gusting 13 10.8
2019-Dec-13 22:25 075 7 gusting 10 10.4
2019-Dec-13 22:20 075 6 gusting 11 10.2
2019-Dec-13 22:15 080 6 gusting 13 10.1
2019-Dec-13 22:10 075 9 gusting 16 10.2
2019-Dec-13 22:05 075 11 gusting 16 10.2
2019-Dec-13 22:00 080 13 gusting 16 10.3
2019-Dec-13 21:55 085 11 gusting 14 10.2
2019-Dec-13 21:50 080 4 gusting 7 9.6
2019-Dec-13 21:45 075 6 gusting 7 9.6
2019-Dec-13 21:40 065 5 gusting 8 9.5
2019-Dec-13 21:35 075 5 gusting 8 9.1
2019-Dec-13 21:30 075 5 gusting 8 9.1
2019-Dec-13 21:25 080 6 gusting 8 9.0
2019-Dec-13 21:20 075 6 gusting 9 9.1
2019-Dec-13 21:15 080 6 gusting 8 9.2
2019-Dec-13 21:10 065 5 gusting 7 9.3
2019-Dec-13 21:05 060 5 gusting 7 9.5
2019-Dec-13 21:00 065 4 gusting 6 9.2
2019-Dec-13 20:55 045 4 gusting 6 9.2
2019-Dec-13 20:50 055 4 gusting 6 9.2
2019-Dec-13 20:45 045 3 gusting 5 9.3
2019-Dec-13 20:40 030 2 gusting 5 9.3
2019-Dec-13 20:35 035 3 gusting 6 9.2
2019-Dec-13 20:30 040 4 gusting 6 9.2
2019-Dec-13 20:25 045 4 gusting 6 9.3
2019-Dec-13 20:20 035 3 gusting 6 9.3
2019-Dec-13 20:15 040 4 gusting 6 9.3
2019-Dec-13 20:10 045 4 gusting 6 9.5
2019-Dec-13 20:05 050 4 gusting 6 9.5
2019-Dec-13 20:00 045 3 gusting 6 9.6
2019-Dec-13 19:55 050 3 gusting 5 9.6
2019-Dec-13 19:50 040 3 gusting 5 9.6
2019-Dec-13 19:45 035 3 gusting 6 9.6
2019-Dec-13 19:40 040 3 gusting 7 9.6
2019-Dec-13 19:35 045 5 gusting 7 9.6
2019-Dec-13 19:30 045 4 gusting 7 9.5
2019-Dec-13 19:25 040 5 gusting 7 9.5
2019-Dec-13 19:20 025 4 gusting 5 9.6
2019-Dec-13 19:15 005 3 gusting 5 9.5
2019-Dec-13 19:10 045 1 gusting 5 9.6
2019-Dec-13 19:05 030 2 gusting 4 9.6
2019-Dec-13 19:00 050 2 gusting 5 9.8
2019-Dec-13 18:55 055 3 gusting 5 9.8
2019-Dec-13 18:50 070 3 gusting 6 9.7
2019-Dec-13 18:45 060 3 gusting 6 9.6
2019-Dec-13 18:40 045 5 gusting 6 9.6
2019-Dec-13 18:35 045 2 gusting 4 9.8
2019-Dec-13 18:30 080 2 gusting 5 10.0
2019-Dec-13 18:25 075 3 gusting 6 10.0
2019-Dec-13 18:20 065 4 gusting 6 9.8
2019-Dec-13 18:15 075 4 gusting 6 9.8
2019-Dec-13 18:10 050 3 gusting 6 9.8
2019-Dec-13 18:05 065 1 gusting 5 9.8
2019-Dec-13 18:00 095 2 gusting 5 9.7
2019-Dec-13 17:55 075 4 gusting 7 9.6
2019-Dec-13 17:50 090 5 gusting 8 9.6
2019-Dec-13 17:45 090 5 gusting 9 9.6
2019-Dec-13 17:40 085 6 gusting 11 9.6
2019-Dec-13 17:35 100 8 gusting 11 9.5
2019-Dec-13 17:30 095 7 gusting 10 9.5
2019-Dec-13 17:25 090 8 gusting 9 9.6
2019-Dec-13 17:20 100 7 gusting 9 9.6
2019-Dec-13 17:15 090 6 gusting 11 9.6
2019-Dec-13 17:10 095 6 gusting 11 9.6
2019-Dec-13 17:05 085 8 gusting 10 9.6
2019-Dec-13 17:00 090 7 gusting 11 9.6
2019-Dec-13 16:55 100 8 gusting 10 9.6
2019-Dec-13 16:50 095 8 gusting 13 9.6
2019-Dec-13 16:45 095 8 gusting 13 9.6
2019-Dec-13 16:40 095 6 gusting 12 9.6
2019-Dec-13 16:35 090 8 gusting 12 9.5
2019-Dec-13 16:30 095 8 gusting 10 9.6
2019-Dec-13 16:25 090 8 gusting 12 9.6
2019-Dec-13 16:20 090 8 gusting 12 9.5
2019-Dec-13 16:15 090 9 gusting 13 9.5
2019-Dec-13 16:10 090 10 gusting 13 9.5
2019-Dec-13 16:05 090 9 gusting 13 9.5
2019-Dec-13 16:00 090 10 gusting 13 9.5
2019-Dec-13 15:55 080 9 gusting 13 9.3
2019-Dec-13 15:50 090 9 gusting 13 9.3
2019-Dec-13 15:45 090 9 gusting 15 9.3
2019-Dec-13 15:40 090 11 gusting 15 9.2
2019-Dec-13 15:35 085 10 gusting 15 9.2
2019-Dec-13 15:30 085 12 gusting 15 9.1
2019-Dec-13 15:25 080 9 gusting 14 9.1
2019-Dec-13 15:20 085 10 gusting 14 9.1
2019-Dec-13 15:15 080 8 gusting 12 9.1
2019-Dec-13 15:10 090 7 gusting 11 9.0
2019-Dec-13 15:05 085 8 gusting 12 8.8
2019-Dec-13 15:00 095 8 gusting 13 8.6
2019-Dec-13 14:55 090 9 gusting 13 8.2
2019-Dec-13 14:50 095 7 gusting 12 8.2
2019-Dec-13 14:45 095 9 gusting 12 8.1
2019-Dec-13 14:40 090 8 gusting 11 7.8
2019-Dec-13 14:35 090 7 gusting 10 7.7
2019-Dec-13 14:30 090 7 gusting 10 7.6
2019-Dec-13 14:25 085 5 gusting 7 7.1
2019-Dec-13 14:20 085 5 gusting 8 6.6
2019-Dec-13 14:15 085 6 gusting 9 6.6
2019-Dec-13 14:10 085 6 gusting 9 6.5
2019-Dec-13 14:05 085 6 gusting 9 6.3
2019-Dec-13 14:00 080 6 gusting 8 6.2
2019-Dec-13 13:55 080 6 gusting 7 6.2
2019-Dec-13 13:50 070 5 gusting 8 6.1
2019-Dec-13 13:45 070 5 gusting 8 6.1
2019-Dec-13 13:40 060 5 gusting 8 5.8
2019-Dec-13 13:35 070 5 gusting 8 5.6
2019-Dec-13 13:30 075 5 gusting 7 5.3
2019-Dec-13 13:25 075 5 gusting 7 5.1
2019-Dec-13 13:20 075 5 gusting 7 4.8
2019-Dec-13 13:15 085 4 gusting 6 4.5
2019-Dec-13 13:10 070 4 gusting 6 4.2
2019-Dec-13 13:05 055 6 gusting 6 4.0
2019-Dec-13 13:00 045 5 gusting 6 3.9
2019-Dec-13 12:55 040 5 gusting 6 3.6
2019-Dec-13 12:50 025 3 gusting 6 3.2
2019-Dec-13 12:45 335 3 gusting 4 2.7
2019-Dec-13 12:40 305 3 gusting 4 2.9
2019-Dec-13 12:35 305 2 gusting 2 2.9
2019-Dec-13 12:30 320 1 gusting 3 3.0
2019-Dec-13 12:25 330 2 gusting 3 3.0
2019-Dec-13 12:20 320 3 gusting 3 2.9
2019-Dec-13 12:15 305 2 gusting 3 2.6
2019-Dec-13 12:10 325 1 gusting 3 2.6
2019-Dec-13 12:05 340 2 gusting 3 2.7
2019-Dec-13 12:00 335 2 gusting 3 2.6
2019-Dec-13 11:55 310 1 gusting 4 2.6
2019-Dec-13 11:50 2.6
2019-Dec-13 11:45 2.6
2019-Dec-13 11:40 2.2
2019-Dec-13 11:35 335 3 gusting 4 1.9
2019-Dec-13 11:30 320 3 gusting 4 1.7
2019-Dec-13 11:25 330 4 gusting 4 1.6
2019-Dec-13 11:20 315 3 gusting 4 1.7
2019-Dec-13 11:15 320 3 gusting 4 1.7
2019-Dec-13 11:10 335 3 gusting 5 1.9
2019-Dec-13 11:05 340 4 gusting 5 1.9
2019-Dec-13 11:00 335 3 gusting 4 1.6
2019-Dec-13 10:55 315 2 gusting 4 1.6
2019-Dec-13 10:50 335 3 gusting 4 1.5
2019-Dec-13 10:45 320 3 gusting 4 1.5
2019-Dec-13 10:40 325 3 gusting 4 1.5
2019-Dec-13 10:35 340 3 gusting 4 1.2
2019-Dec-13 10:30 350 3 gusting 4 1.1
2019-Dec-13 10:25 330 2 gusting 4 1.1
2019-Dec-13 10:20 320 3 gusting 4 1.1
2019-Dec-13 10:15 335 2 gusting 3 1.7
2019-Dec-13 10:10 040 2 gusting 6 2.6
2019-Dec-13 10:05 045 3 gusting 6 2.6
2019-Dec-13 10:00 040 4 gusting 5 2.2
2019-Dec-13 09:45 005 4 gusting 5 2.0
2019-Dec-13 09:40 025 3 gusting 6 2.1
2019-Dec-13 09:35 1.6
2019-Dec-13 09:30 1.9
2019-Dec-13 09:25 355 4 gusting 5 1.7
2019-Dec-13 09:20 010 4 gusting 5 2.0
2019-Dec-13 09:15 020 4 gusting 6 2.1
2019-Dec-13 09:10 015 4 gusting 6 1.9
2019-Dec-13 09:05 020 3 gusting 4 1.9
2019-Dec-13 09:00 020 3 gusting 4 1.9
2019-Dec-13 08:55 020 3 gusting 4 1.6
2019-Dec-13 08:50 1.6
2019-Dec-13 08:45 345 2 gusting 5 1.6
2019-Dec-13 08:40 015 4 gusting 5 1.7
2019-Dec-13 08:35 010 3 gusting 5 1.4
2019-Dec-13 08:30 345 3 gusting 6 1.6
2019-Dec-13 08:25 1.9
2019-Dec-13 08:20 2.0
2019-Dec-13 08:15 005 2 gusting 5 2.1
2019-Dec-13 08:10 005 3 gusting 5 2.2
2019-Dec-13 08:05 055 3 gusting 5 2.6
2019-Dec-13 08:00 055 3 gusting 5 2.6
2019-Dec-13 07:55 035 3 gusting 4 2.6
2019-Dec-13 07:50 2.6
2019-Dec-13 07:45 015 4 gusting 6 2.5
2019-Dec-13 07:40 335 2 gusting 4 1.2
2019-Dec-13 07:35 350 2 gusting 4 1.1
2019-Dec-13 07:30 1.1
2019-Dec-13 07:25 345 3 gusting 3 1.1
2019-Dec-13 07:20 340 2 gusting 3 1.1
2019-Dec-13 07:00 015 2 gusting 7 1.5
2019-Dec-13 06:55 050 4 gusting 7 2.1
2019-Dec-13 06:50 050 5 gusting 6 2.1
2019-Dec-13 06:45 055 4 gusting 6 2.1
2019-Dec-13 06:40 060 5 gusting 7 2.1
2019-Dec-13 06:35 070 5 gusting 7 2.1
2019-Dec-13 06:30 070 6 gusting 8 2.0
2019-Dec-13 06:25 070 6 gusting 8 2.0
2019-Dec-13 06:20 075 5 gusting 7 1.9
2019-Dec-13 06:15 075 6 gusting 7 1.7
2019-Dec-13 06:10 075 5 gusting 7 1.7
2019-Dec-13 06:05 070 5 gusting 7 2.0
2019-Dec-13 06:00 070 5 gusting 7 2.0
2019-Dec-13 05:55 065 4 gusting 6 2.1
2019-Dec-13 05:50 070 5 gusting 6 2.1
2019-Dec-13 05:45 065 5 gusting 6 2.1
2019-Dec-13 05:40 065 4 gusting 6 2.0
2019-Dec-13 05:35 040 2 gusting 8 2.1
2019-Dec-13 05:30 065 5 gusting 9 2.1
2019-Dec-13 05:25 060 6 gusting 9 2.1
2019-Dec-13 05:20 065 6 gusting 9 2.1
2019-Dec-13 05:00 075 6 gusting 9 1.9
2019-Dec-13 04:50 070 6 gusting 10 2.0
2019-Dec-13 04:45 060 6 gusting 9 2.1
2019-Dec-13 04:40 060 6 gusting 9 2.1
2019-Dec-13 04:35 060 6 gusting 9 2.1
2019-Dec-13 04:30 065 7 gusting 9 2.1
2019-Dec-13 04:25 060 6 gusting 9 2.1
2019-Dec-13 04:20 060 7 gusting 9 2.1
2019-Dec-13 04:15 065 7 gusting 10 2.1
2019-Dec-13 04:10 065 6 gusting 10 2.1
2019-Dec-13 04:05 070 7 gusting 9 2.1
2019-Dec-13 04:00 060 7 gusting 11 2.0
2019-Dec-13 03:55 065 7 gusting 13 2.0
2019-Dec-13 03:50 065 9 gusting 13 2.1
2019-Dec-13 03:45 070 8 gusting 12 2.0
2019-Dec-13 03:40 075 8 gusting 13 2.0
2019-Dec-13 03:35 080 9 gusting 13 2.0
2019-Dec-13 03:30 080 9 gusting 12 1.9
2019-Dec-13 03:25 070 7 gusting 11 1.7
2019-Dec-13 03:20 070 7 gusting 12 1.7
2019-Dec-13 03:15 075 8 gusting 12 1.9
2019-Dec-13 03:10 075 8 gusting 11 1.7
2019-Dec-13 03:05 080 8 gusting 11 1.6
2019-Dec-13 03:00 085 8 gusting 11 1.6
2019-Dec-13 02:55 085 9 gusting 10 1.4
2019-Dec-13 02:50 085 8 gusting 11 1.5
2019-Dec-13 02:45 085 9 gusting 12 1.5
2019-Dec-13 02:40 085 9 gusting 12 1.6
2019-Dec-13 02:35 085 8 gusting 10 1.4
2019-Dec-13 02:30 085 8 gusting 10 1.4
2019-Dec-13 02:25 085 8 gusting 10 1.2
2019-Dec-13 02:20 085 8 gusting 10 1.2
2019-Dec-13 02:15 080 8 gusting 10 1.2
2019-Dec-13 02:10 085 8 gusting 10 1.1
2019-Dec-13 02:05 085 8 gusting 10 1.1
2019-Dec-13 02:00 080 8 gusting 10 1.0
2019-Dec-13 01:55 085 8 gusting 10 0.6
2019-Dec-13 01:50 085 7 gusting 9 0.3
2019-Dec-13 01:45 085 7 gusting 8 0.1
2019-Dec-13 01:40 085 5 gusting 7 0.1
2019-Dec-13 01:35 080 3 gusting 5 0.2
2019-Dec-13 01:30 065 2 gusting 5 -0.4
2019-Dec-13 01:25 020 1 gusting 4 -0.8
2019-Dec-13 01:20 065 2 gusting 4 -0.0
2019-Dec-13 01:15 060 2 gusting 4 0.1
2019-Dec-13 01:10 060 2 gusting 3 0.1
2019-Dec-13 01:05 050 1 gusting 2 -0.7
2019-Dec-13 01:00 060 1 gusting 2 -0.1
2019-Dec-13 00:55 065 1 gusting 2 -0.4
2019-Dec-13 00:50 075 0 gusting 2 -0.3
2019-Dec-13 00:45 355 1 gusting 2 -0.7
2019-Dec-13 00:40 035 0 gusting 1 -0.9
2019-Dec-13 00:35 325 0 gusting 1 -0.9
2019-Dec-13 00:30 -0.9
2019-Dec-13 00:25 285 0 gusting 1 -0.8
2019-Dec-13 00:20 305 0 gusting 1 -0.9
2019-Dec-13 00:15 285 1 gusting 1 -0.9
2019-Dec-13 00:10 320 0 gusting 2 -0.4
2019-Dec-13 00:05 035 0 gusting 3 0.1
2019-Dec-13 00:00 355 1 gusting 3 0.1
2019-Dec-12 23:55 045 1 gusting 3 -0.0
2019-Dec-12 23:50 005 1 gusting 4 -0.0
2019-Dec-12 23:45 005 2 gusting 4 -0.4
2019-Dec-12 23:40 340 1 gusting 2 -0.4
2019-Dec-12 23:35 005 1 gusting 2 -0.5
2019-Dec-12 23:30 345 1 gusting 2 -0.4
2019-Dec-12 23:25 340 1 gusting 2 -0.7
2019-Dec-12 23:20 335 2 gusting 2 -0.4
2019-Dec-12 23:15 320 1 gusting 2 -0.7
2019-Dec-12 23:10 295 1 gusting 2 -0.7
2019-Dec-12 23:05 200 0 gusting 2 0.1
2019-Dec-12 23:00 135 1 gusting 3 1.0
2019-Dec-12 22:55 145 1 gusting 3 1.0
2019-Dec-12 22:50 130 2 gusting 4 0.7
2019-Dec-12 22:45 125 2 gusting 4 0.5
2019-Dec-12 22:40 110 3 gusting 5 0.6
2019-Dec-12 22:35 115 4 gusting 5 0.6
2019-Dec-12 22:30 115 4 gusting 5 0.5
2019-Dec-12 22:25 110 4 gusting 4 0.3
2019-Dec-12 22:20 100 3 gusting 4 0.6
2019-Dec-12 22:15 095 2 gusting 3 0.7
2019-Dec-12 22:10 120 2 gusting 3 1.0
2019-Dec-12 22:05 120 3 gusting 3 1.0
2019-Dec-12 22:00 110 2 gusting 4 1.0
2019-Dec-12 21:55 100 2 gusting 4 1.0
2019-Dec-12 21:50 075 2 gusting 4 1.0
2019-Dec-12 21:45 095 3 gusting 4 1.0
2019-Dec-12 21:40 095 3 gusting 4 0.8
2019-Dec-12 21:35 095 3 gusting 4 1.0
2019-Dec-12 21:30 090 3 gusting 6 1.0
2019-Dec-12 21:25 100 4 gusting 6 1.1
2019-Dec-12 21:20 100 4 gusting 6 1.2
2019-Dec-12 21:15 090 5 gusting 6 1.4
2019-Dec-12 21:10 085 5 gusting 6 1.6
2019-Dec-12 21:05 090 6 gusting 7 1.6
2019-Dec-12 21:00 085 5 gusting 7 1.7
2019-Dec-12 20:55 095 5 gusting 7 1.9
2019-Dec-12 20:50 090 5 gusting 7 2.0
2019-Dec-12 20:45 090 6 gusting 7 2.0
2019-Dec-12 20:40 080 5 gusting 8 2.1
2019-Dec-12 20:35 100 5 gusting 8 2.1
2019-Dec-12 20:30 075 6 gusting 7 2.1
2019-Dec-12 20:25 090 5 gusting 7 2.1
2019-Dec-12 20:20 095 5 gusting 8 2.2
2019-Dec-12 20:15 090 6 gusting 8 2.1
2019-Dec-12 20:10 095 3 gusting 8 2.1
2019-Dec-12 20:05 070 5 gusting 8 2.4
2019-Dec-12 20:00 080 6 gusting 8 2.2
2019-Dec-12 19:55 075 5 gusting 8 2.5
2019-Dec-12 19:50 090 6 gusting 8 2.2
2019-Dec-12 19:45 095 6 gusting 8 2.2
2019-Dec-12 19:40 095 5 gusting 8 2.4
2019-Dec-12 19:35 075 4 gusting 9 2.5
2019-Dec-12 19:30 080 5 gusting 9 2.1
2019-Dec-12 19:25 080 6 gusting 10 2.2
2019-Dec-12 19:20 080 6 gusting 11 2.1
2019-Dec-12 19:15 080 7 gusting 11 2.1
2019-Dec-12 19:10 080 6 gusting 10 1.9
2019-Dec-12 19:05 065 5 gusting 10 2.0
2019-Dec-12 19:00 090 7 gusting 10 2.1
2019-Dec-12 18:55 095 7 gusting 10 1.9
2019-Dec-12 18:50 095 5 gusting 10 2.1
2019-Dec-12 18:45 080 5 gusting 10 1.7
2019-Dec-12 18:40 075 6 gusting 10 2.0
2019-Dec-12 18:35 090 5 gusting 10 2.1
2019-Dec-12 18:30 085 4 gusting 11 1.9
2019-Dec-12 18:25 080 6 gusting 11 1.6
2019-Dec-12 18:20 095 7 gusting 10 2.0
2019-Dec-12 18:15 080 7 gusting 10 1.9
2019-Dec-12 18:10 115 5 gusting 11 1.7
2019-Dec-12 18:05 085 7 gusting 11 1.7
2019-Dec-12 18:00 045 5 gusting 8 1.7
2019-Dec-12 17:55 105 4 gusting 10 1.6
2019-Dec-12 17:50 095 6 gusting 10 1.6
2019-Dec-12 17:45 085 4 gusting 9 1.9
2019-Dec-12 17:40 110 7 gusting 9 1.7
2019-Dec-12 17:35 075 5 gusting 10 2.0
2019-Dec-12 17:30 090 6 gusting 10 2.0
2019-Dec-12 17:25 090 4 gusting 10 2.0
2019-Dec-12 17:20 095 7 gusting 10 2.0
2019-Dec-12 17:15 085 7 gusting 8 2.0
2019-Dec-12 17:10 120 5 gusting 10 2.0
2019-Dec-12 17:05 070 8 gusting 10 1.6
2019-Dec-12 17:00 085 6 gusting 9 2.0
2019-Dec-12 16:55 085 6 gusting 9 2.1
2019-Dec-12 16:50 080 7 gusting 9 1.6
2019-Dec-12 16:45 080 6 gusting 10 1.9
2019-Dec-12 16:40 090 6 gusting 10 1.9
2019-Dec-12 16:35 100 4 gusting 9 1.9
2019-Dec-12 16:30 100 4 gusting 9 1.7
2019-Dec-12 16:25 115 6 gusting 8 1.7
2019-Dec-12 16:20 080 2 gusting 9 1.5
2019-Dec-12 16:15 105 6 gusting 9 1.5
2019-Dec-12 16:10 100 6 gusting 10 1.5
2019-Dec-12 16:05 095 5 gusting 10 1.1
2019-Dec-12 16:00 070 6 gusting 10 1.1
2019-Dec-12 15:55 035 4 gusting 9 1.0
2019-Dec-12 15:50 080 5 gusting 11 0.8
2019-Dec-12 15:45 075 6 gusting 11 1.4
2019-Dec-12 15:40 080 6 gusting 10 0.8
2019-Dec-12 15:35 050 4 gusting 11 0.7
2019-Dec-12 15:30 030 6 gusting 11 0.7
2019-Dec-12 15:25 070 4 gusting 9 0.8
2019-Dec-12 15:20 035 6 gusting 10 0.5
2019-Dec-12 15:15 055 7 gusting 10 0.7
2019-Dec-12 15:10 035 6 gusting 10 0.3
2019-Dec-12 15:05 075 6 gusting 11 0.3
2019-Dec-12 15:00 030 7 gusting 11 0.3
2019-Dec-12 14:55 040 7 gusting 13 0.5
2019-Dec-12 14:50 045 10 gusting 13 0.3
2019-Dec-12 14:45 015 6 gusting 11 0.1
2019-Dec-12 14:40 035 7 gusting 11 0.3
2019-Dec-12 14:35 020 8 gusting 10 0.1
2019-Dec-12 14:30 0.1
2019-Dec-12 14:25 035 7 gusting 12 -0.0
2019-Dec-12 14:20 010 6 gusting 10 -0.1
2019-Dec-12 14:15 005 7 gusting 11 -0.1
2019-Dec-12 14:10 -0.3
2019-Dec-12 14:05 -0.3
2019-Dec-12 14:00 010 8 gusting 11 -0.3
2019-Dec-12 13:55 020 7 gusting 11 -0.4
2019-Dec-12 13:50 350 7 gusting 10 -0.8
2019-Dec-12 13:45 010 5 gusting 11 -0.5
2019-Dec-12 13:40 -0.7
2019-Dec-12 13:35 010 6 gusting 8 -0.9
2019-Dec-12 13:30 345 5 gusting 8 -1.3
2019-Dec-12 13:25 335 5 gusting 8 -1.4
2019-Dec-12 13:20 355 4 gusting 7 -1.5
2019-Dec-12 13:15 345 5 gusting 8 -1.8
2019-Dec-12 13:10 355 5 gusting 8 -1.9
2019-Dec-12 13:05 335 3 gusting 5 -2.1
2019-Dec-12 13:00 330 3 gusting 3 -2.1
2019-Dec-12 12:55 325 1 gusting 3 -2.3
2019-Dec-12 12:50 320 3 gusting 3 -2.3
2019-Dec-12 12:45 340 3 gusting 4 -2.4
2019-Dec-12 12:40 345 3 gusting 6 -2.5
2019-Dec-12 12:35 335 4 gusting 6 -2.5
2019-Dec-12 12:30 345 4 gusting 8 -2.5
2019-Dec-12 12:25 340 5 gusting 8 -2.8
2019-Dec-12 12:20 335 6 gusting 7 -2.8
2019-Dec-12 12:15 335 5 gusting 8 -2.6
2019-Dec-12 12:10 330 6 gusting 9 -2.8
2019-Dec-12 12:05 330 7 gusting 9 -2.6
2019-Dec-12 12:00 330 6 gusting 10 -2.4
2019-Dec-12 11:55 330 7 gusting 10 -2.4
2019-Dec-12 11:50 330 7 gusting 10 -2.4
2019-Dec-12 11:45 330 7 gusting 10 -2.4
2019-Dec-12 11:40 330 7 gusting 10 -2.3
2019-Dec-12 11:35 335 7 gusting 11 -2.4
2019-Dec-12 11:30 340 8 gusting 12 -2.3
2019-Dec-12 11:25 330 9 gusting 12 -2.1
2019-Dec-12 11:20 340 8 gusting 13 -2.0
2019-Dec-12 11:15 330 9 gusting 13 -2.4
2019-Dec-12 11:10 330 6 gusting 9 -2.4
2019-Dec-12 11:05 320 7 gusting 11 -2.0
2019-Dec-12 11:00 315 8 gusting 11 -1.9
2019-Dec-12 10:55 320 7 gusting 12 -1.9
2019-Dec-12 10:50 320 8 gusting 11 -1.9
2019-Dec-12 10:45 315 8 gusting 13 -1.9
2019-Dec-12 10:40 325 9 gusting 14 -1.6
2019-Dec-12 10:35 320 9 gusting 16 -1.8
2019-Dec-12 10:30 315 11 gusting 19 -1.5
2019-Dec-12 10:25 325 14 gusting 20 -1.5
2019-Dec-12 10:20 320 15 gusting 18 -1.5
2019-Dec-12 10:15 320 12 gusting 17 -1.6
2019-Dec-12 10:10 320 15 gusting 17 -1.6
2019-Dec-12 10:05 320 13 gusting 16 -1.9
2019-Dec-12 10:00 320 10 gusting 15 -1.6
2019-Dec-12 09:55 320 11 gusting 17 -1.6
2019-Dec-12 09:50 325 12 gusting 17 -1.5
2019-Dec-12 09:45 315 10 gusting 17 -1.6
2019-Dec-12 09:40 320 10 gusting 17 -1.6
2019-Dec-12 09:35 320 10 gusting 14 -1.8
2019-Dec-12 09:30 325 9 gusting 14 -1.6
2019-Dec-12 09:25 320 10 gusting 14 -1.6
2019-Dec-12 09:20 320 10 gusting 13 -1.8
2019-Dec-12 09:15 330 11 gusting 13 -1.5
2019-Dec-12 09:10 320 10 gusting 18 -1.4
2019-Dec-12 09:05 325 13 gusting 19 -1.4
2019-Dec-12 09:00 325 13 gusting 19 -1.3
2019-Dec-12 08:50 335 10 gusting 15 -1.3
2019-Dec-12 08:45 330 11 gusting 17 -1.3
2019-Dec-12 08:40 335 13 gusting 21 -1.3
2019-Dec-12 08:35 325 14 gusting 21 -1.3
2019-Dec-12 08:30 330 13 gusting 17 -1.5
2019-Dec-12 08:25 330 10 gusting 13 -1.5
2019-Dec-12 08:20 325 11 gusting 13 -1.8
2019-Dec-12 08:15 325 10 gusting 13 -1.8
2019-Dec-12 08:10 320 10 gusting 13 -1.3
2019-Dec-12 08:05 310 7 gusting 10 -1.3
2019-Dec-12 08:00 320 6 gusting 8 -1.4
2019-Dec-12 07:55 315 5 gusting 7 -1.5
2019-Dec-12 07:50 295 6 gusting 7 -1.4
2019-Dec-12 07:45 295 5 gusting 6 -1.1
2019-Dec-12 07:40 300 4 gusting 6 -1.3
2019-Dec-12 07:35 300 5 gusting 7 -1.4
2019-Dec-12 07:30 300 5 gusting 7 -1.5
2019-Dec-12 07:25 300 6 gusting 7 -1.4
2019-Dec-12 07:20 295 5 gusting 6 -1.4
2019-Dec-12 07:00 285 7 gusting 8 -1.0
2019-Dec-12 06:55 280 5 gusting 6 -1.0
2019-Dec-12 06:50 280 3 gusting 6 -0.9
2019-Dec-12 06:45 270 4 gusting 7 -1.0
2019-Dec-12 06:40 270 5 gusting 7 -1.4
2019-Dec-12 06:35 290 6 gusting 7 -1.4
2019-Dec-12 06:30 285 5 gusting 6 -1.0
2019-Dec-12 06:25 285 5 gusting 6 -0.9
2019-Dec-12 06:20 280 5 gusting 7 -0.9
2019-Dec-12 06:15 280 6 gusting 7 -0.9
2019-Dec-12 06:10 280 6 gusting 8 -0.8
2019-Dec-12 06:05 275 6 gusting 8 -0.8
2019-Dec-12 06:00 275 6 gusting 7 -0.7
2019-Dec-12 05:55 265 6 gusting 7 -0.7
2019-Dec-12 05:50 275 5 gusting 8 -0.5
2019-Dec-12 05:45 270 5 gusting 8 -0.5
2019-Dec-12 05:40 265 6 gusting 8 -0.5
2019-Dec-12 05:35 270 4 gusting 7 -0.4
2019-Dec-12 05:30 255 5 gusting 6 -0.4
2019-Dec-12 05:25 265 4 gusting 8 -0.4
2019-Dec-12 05:20 275 6 gusting 8 -0.4
2019-Dec-12 05:15 280 6 gusting 10 -0.4
2019-Dec-12 05:10 275 7 gusting 10 -0.3
2019-Dec-12 05:05 280 7 gusting 10 -0.1
2019-Dec-12 05:00 280 7 gusting 10 -0.0
2019-Dec-12 04:55 280 7 gusting 13 0.1
2019-Dec-12 04:50 290 9 gusting 13 0.1
2019-Dec-12 04:45 285 6 gusting 13 0.1
2019-Dec-12 04:40 280 7 gusting 13 0.2
2019-Dec-12 04:35 285 10 gusting 13 0.2
2019-Dec-12 04:30 285 9 gusting 11 0.1
2019-Dec-12 04:25 280 8 gusting 10 0.2
2019-Dec-12 04:20 280 8 gusting 10 0.1
2019-Dec-12 04:15 285 8 gusting 10 0.3
2019-Dec-12 04:10 290 7 gusting 10 0.3
2019-Dec-12 04:05 280 7 gusting 10 0.5
2019-Dec-12 04:00 285 6 gusting 13 0.3
2019-Dec-12 03:55 285 8 gusting 13 0.7
2019-Dec-12 03:50 290 9 gusting 12 0.6
2019-Dec-12 03:45 280 9 gusting 12 0.3
2019-Dec-12 03:40 285 8 gusting 10 0.2
2019-Dec-12 03:35 280 8 gusting 10 0.1
2019-Dec-12 03:30 280 8 gusting 9 0.1
2019-Dec-12 03:25 285 8 gusting 9 0.3
2019-Dec-12 03:20 280 6 gusting 9 0.3
2019-Dec-12 03:15 285 6 gusting 9 0.3
2019-Dec-12 03:10 290 7 gusting 10 0.6
2019-Dec-12 03:05 285 7 gusting 12 0.6
2019-Dec-12 03:00 285 9 gusting 12 0.6
2019-Dec-12 02:55 285 9 gusting 12 0.6
2019-Dec-12 02:50 280 9 gusting 12 0.6
2019-Dec-12 02:45 280 10 gusting 12 0.7
2019-Dec-12 02:40 275 8 gusting 12 0.8
2019-Dec-12 02:35 275 8 gusting 12 1.0
2019-Dec-12 02:30 275 8 gusting 12 1.0
2019-Dec-12 02:25 280 9 gusting 12 1.0
2019-Dec-12 02:20 280 7 gusting 11 1.1
2019-Dec-12 02:15 280 7 gusting 11 1.1
2019-Dec-12 02:10 280 8 gusting 11 1.0
2019-Dec-12 02:05 280 7 gusting 12 1.1
2019-Dec-12 02:00 280 8 gusting 12 1.1
2019-Dec-12 01:55 285 9 gusting 13 1.2
2019-Dec-12 01:50 285 10 gusting 13 1.2
2019-Dec-12 01:45 285 11 gusting 15 1.4
2019-Dec-12 01:40 285 11 gusting 15 1.4
2019-Dec-12 01:35 290 11 gusting 15 1.2
2019-Dec-12 01:30 290 11 gusting 15 1.2
2019-Dec-12 01:25 290 12 gusting 14 1.2
2019-Dec-12 01:20 290 11 gusting 14 1.2
2019-Dec-12 01:15 290 11 gusting 14 1.1
2019-Dec-12 01:10 290 10 gusting 14 1.1
2019-Dec-12 01:05 290 10 gusting 13 1.2
2019-Dec-12 01:00 285 10 gusting 12 1.1
2019-Dec-12 00:55 285 9 gusting 12 1.0
2019-Dec-12 00:50 290 9 gusting 11 0.8
2019-Dec-12 00:45 285 8 gusting 11 1.1
2019-Dec-12 00:40 275 6 gusting 8 1.1
2019-Dec-12 00:35 265 5 gusting 7 0.8
2019-Dec-12 00:30 275 5 gusting 7 0.8
2019-Dec-12 00:25 280 5 gusting 8 0.8
2019-Dec-12 00:20 280 6 gusting 8 1.1
2019-Dec-12 00:15 285 6 gusting 8 1.1
2019-Dec-12 00:10 280 6 gusting 10 1.1
2019-Dec-12 00:05 275 7 gusting 10 1.1
2019-Dec-12 00:00 280 8 gusting 10 1.1
2019-Dec-11 23:55 280 7 gusting 9 1.1
2019-Dec-11 23:50 280 6 gusting 9 1.1
2019-Dec-11 23:45 280 5 gusting 8 1.1
2019-Dec-11 23:40 265 3 gusting 6 1.4
2019-Dec-11 23:35 260 4 gusting 6 1.5
2019-Dec-11 23:30 260 4 gusting 6 1.2
2019-Dec-11 23:25 255 4 gusting 10 1.1
2019-Dec-11 23:20 270 5 gusting 10 1.1
2019-Dec-11 23:15 255 3 gusting 5 1.1
2019-Dec-11 23:10 260 3 gusting 6 1.2
2019-Dec-11 23:05 270 4 gusting 6 1.4
2019-Dec-11 23:00 270 4 gusting 6 1.6